Terminal Aerodrome Forecast
Issued by NWS Houston/Galveston TX

Home | Current Version | Previous Version | Text Only | Print | Product List | Glossary On
Versions: 1 2 3 4 5 6 7 8 9 10 11 12 13 14 15 16 17 18 19 20 21 22 23 24 25 26 27 28 29 30 31 32 33 34 35 36
000
FTUS44 KHGX 221907 AAA
TAFHOU
TAF AMD
KHOU 221907Z 2219/2318 29003KT 4SM BR VCSH SCT005 OVC015
     FM222000 14010G16KT P6SM VCSH SCT015 OVC030
      TEMPO 2223/2301 14005KT BKN015 OVC025
     FM230100 VRB03KT 3SM BR OVC006
     FM230400 13003KT 1SM BR OVC003
     FM230600 14002KT 1/2SM FG OVC002
     FM231300 15007KT 1SM BR VCSH OVC003
     FM231500 15009KT 5SM BR VCSH SCT004 OVC012=

USA.gov is the U.S. government's official web portal to all federal, state and local government web resources and services.